Latest Weather Observations for Campbelltown

IDN60901

Issued at 2:11 pm EST Friday 17 September 2021 (issued every 10 minutes, with the page automatically refreshed every 10 minutes)

About weather observations | Map of Sydney area stations | Latest observations for Sydney area | Other Formats
Station Details ID: 068257 Name: CAMPBELLTOWN (MOUNT ANNAN) Lat: -34.06 Lon: 150.77 Height: 112.0 m
Data from the previous 72 hours. | See also: Recent months at Campbelltown
Date/Time
EST
Temp
°C
App
Temp
°C
Dew
Point
°C
Rel
Hum
%
Delta-T
°C
Wind Press
QNH
hPa
Press
MSL
hPa
Rain since
9am
mm
Dir  Spd
km/h
Gust
km/h
Spd
kts
Gust
kts
17/02:00pm 21.5 17.7 3.7 31 8.6 NNE 13 20 7 11 - - 0.0
17/01:30pm 21.5 17.8 4.6 33 8.3 NNE 13 20 7 11 - - 0.0
17/01:00pm 21.2 17.6 5.1 35 8.0 NNE 13 22 7 12 - - 0.0
17/12:30pm 21.0 17.3 6.2 38 7.5 N 15 24 8 13 - - 0.0
17/12:00pm 20.3 16.3 6.6 41 6.9 N 17 26 9 14 - - 0.0
17/11:30am 19.8 16.0 7.5 45 6.3 N 17 26 9 14 - - 0.0
17/11:00am 18.3 14.3 6.5 46 5.9 NNE 17 26 9 14 - - 0.0
17/10:30am 17.7 14.0 8.0 53 5.0 N 17 20 9 11 - - 0.0
17/10:00am 16.9 13.2 8.1 56 4.5 N 17 30 9 16 - - 0.0
17/09:30am 16.5 14.3 9.2 62 3.8 NNW 11 20 6 11 - - 0.0
17/09:00am 14.4 12.7 8.4 67 3.0 N 7 11 4 6 - - 0.0
17/08:30am 12.8 12.2 9.1 78 1.9 SE 2 7 1 4 - - 0.0
17/08:00am 10.2 10.1 9.6 96 0.3 CALM 0 0 0 0 - - 0.0
17/07:30am 8.5 8.1 8.4 99 0.0 CALM 0 0 0 0 - - 0.0
17/07:00am 5.6 4.5 5.3 98 0.1 CALM 0 0 0 0 - - 0.0
17/06:30am 4.7 3.5 4.4 98 0.1 CALM 0 0 0 0 - - 0.0
17/06:00am 4.6 3.3 4.3 98 0.1 CALM 0 0 0 0 - - 0.0
17/05:30am 4.8 3.6 4.5 98 0.1 CALM 0 0 0 0 - - 0.0
17/05:00am 5.0 3.8 4.6 97 0.2 CALM 0 0 0 0 - - 0.0
17/04:30am 5.0 3.8 4.6 97 0.2 CALM 0 0 0 0 - - 0.0
17/04:00am 5.2 4.0 4.8 97 0.2 CALM 0 0 0 0 - - 0.0
17/03:30am 5.8 4.8 5.4 97 0.2 CALM 0 0 0 0 - - 0.0
17/03:00am 6.7 5.9 6.3 97 0.2 CALM 0 0 0 0 - - 0.0
17/02:30am 6.3 5.4 5.9 97 0.2 CALM 0 0 0 0 - - 0.0
17/02:00am 6.3 5.3 5.6 95 0.3 CALM 0 0 0 0 - - 0.0
17/01:30am 6.6 5.7 5.9 95 0.3 CALM 0 0 0 0 - - 0.0
17/01:00am 7.5 6.8 6.8 95 0.3 CALM 0 0 0 0 - - 0.0
17/12:30am 7.7 6.9 6.6 93 0.5 CALM 0 0 0 0 - - 0.0
17/12:00am 8.6 8.0 7.5 93 0.5 CALM 0 0 0 0 - - 0.0
 
Date/Time
EST
Temp
°C
App
Temp
°C
Dew
Point
°C
Rel
Hum
%
Delta-T
°C
Wind Press
QNH
hPa
Press
MSL
hPa
Rain since
9am
mm
Dir  Spd
km/h
Gust
km/h
Spd
kts
Gust
kts
16/11:30pm 9.2 8.7 7.8 91 0.7 CALM 0 0 0 0 - - 0.0
16/11:00pm 9.9 9.6 8.5 91 0.7 CALM 0 0 0 0 - - 0.0
16/10:30pm 10.1 9.9 8.9 92 0.6 CALM 0 0 0 0 - - 0.0
16/10:00pm 9.8 9.5 8.6 92 0.6 CALM 0 0 0 0 - - 0.0
16/09:30pm 9.6 9.2 8.2 91 0.7 CALM 0 0 0 0 - - 0.0
16/09:00pm 9.6 9.1 7.9 89 0.8 CALM 0 0 0 0 - - 0.0
16/08:30pm 10.1 9.7 8.2 88 0.9 CALM 0 0 0 0 - - 0.0
16/08:00pm 10.4 8.8 8.0 85 1.2 SSE 6 6 3 3 - - 0.0
16/07:30pm 11.3 10.9 8.3 82 1.5 CALM 0 0 0 0 - - 0.0
16/07:00pm 11.6 11.2 8.3 80 1.6 CALM 0 0 0 0 - - 0.0
16/06:30pm 12.1 11.3 8.2 77 1.9 ESE 2 7 1 4 - - 0.0
16/06:00pm 12.9 10.9 8.6 75 2.2 E 9 15 5 8 - - 0.0
16/05:30pm 13.3 11.2 8.2 71 2.5 SE 9 11 5 6 - - 0.0
16/05:00pm 13.8 11.6 8.0 68 2.9 ESE 9 19 5 10 - - 0.0
16/04:30pm 14.1 11.6 8.1 67 3.0 ESE 11 20 6 11 - - 0.0
16/04:00pm 15.3 12.5 7.1 58 4.1 E 11 20 6 11 - - 0.0
16/03:30pm 17.4 14.5 8.3 55 4.7 SE 13 22 7 12 - - 0.0
16/03:00pm 17.7 14.8 8.3 54 4.8 E 13 20 7 11 - - 0.0
16/02:30pm 16.2 13.3 6.6 53 4.7 E 11 20 6 11 - - 0.0
16/02:00pm 17.0 13.8 6.8 51 5.1 E 13 20 7 11 - - 0.0
16/01:30pm 17.2 14.5 7.3 52 5.0 ESE 11 17 6 9 - - 0.0
16/01:00pm 16.9 14.5 7.0 52 4.9 E 9 15 5 8 - - 0.0
16/12:30pm 17.5 15.7 7.3 51 5.1 NE 6 13 3 7 - - 0.0
16/12:00pm 16.9 14.7 5.2 46 5.6 SSE 6 15 3 8 - - 0.0
16/11:30am 17.1 14.9 7.7 54 4.8 SSW 9 15 5 8 - - 0.0
16/11:00am 15.9 13.2 5.8 51 4.9 SSE 9 15 5 8 - - 0.0
16/10:30am 16.0 13.6 7.0 55 4.5 SE 9 13 5 7 - - 0.0
16/10:00am 16.4 13.6 6.8 53 4.8 S 11 20 6 11 - - 0.0
16/09:30am 15.4 12.9 8.2 62 3.6 S 11 17 6 9 - - 0.0
16/09:00am 14.0 11.5 8.0 67 3.0 SW 11 20 6 11 - - 0.2
16/08:30am 12.3 9.7 7.8 74 2.2 SW 11 17 6 9 - - 0.2
16/08:00am 11.2 9.5 8.2 82 1.5 SW 7 9 4 5 - - 0.2
16/07:30am 9.1 7.2 7.7 91 0.7 SW 7 11 4 6 - - 0.2
16/07:00am 6.8 6.0 6.4 97 0.2 CALM 0 4 0 2 - - 0.2
16/06:30am 5.1 3.9 4.4 95 0.3 CALM 0 0 0 0 - - 0.2
16/06:00am 5.6 3.1 4.9 95 0.3 SSW 7 11 4 6 - - 0.2
16/05:30am 5.4 2.9 4.7 95 0.3 SSW 7 9 4 5 - - 0.2
16/05:00am 5.5 2.6 4.8 95 0.3 S 9 13 5 7 - - 0.2
16/04:30am 5.6 3.1 4.7 94 0.4 S 7 9 4 5 - - 0.2
16/04:00am 5.6 3.3 4.9 95 0.3 SSW 6 7 3 4 - - 0.2
16/03:30am 5.3 2.9 4.4 94 0.4 SW 6 7 3 4 - - 0.2
16/03:00am 5.5 3.2 4.6 94 0.4 SSW 6 7 3 4 - - 0.2
16/02:30am 5.9 3.6 4.7 92 0.5 SW 6 7 3 4 - - 0.2
16/02:00am 6.0 3.7 5.0 93 0.4 SW 6 9 3 5 - - 0.2
16/01:30am 6.0 3.8 5.1 94 0.4 SW 6 9 3 5 - - 0.2
16/01:00am 5.8 3.6 5.1 95 0.3 SW 6 7 3 4 - - 0.2
16/12:30am 5.5 3.2 4.6 94 0.4 SW 6 9 3 5 - - 0.2
16/12:00am 5.5 3.1 4.5 93 0.4 SW 6 11 3 6 - - 0.2
 
Date/Time
EST
Temp
°C
App
Temp
°C
Dew
Point
°C
Rel
Hum
%
Delta-T
°C
Wind Press
QNH
hPa
Press
MSL
hPa
Rain since
9am
mm
Dir  Spd
km/h
Gust
km/h
Spd
kts
Gust
kts
15/11:30pm 5.9 4.7 4.7 92 0.5 CALM 0 0 0 0 - - 0.2
15/11:00pm 6.1 4.9 4.4 89 0.7 CALM 0 7 0 4 - - 0.2
15/10:30pm 7.1 4.9 5.4 89 0.8 SSW 6 9 3 5 - - 0.2
15/10:00pm 6.6 4.6 4.6 87 0.9 SW 4 9 2 5 - - 0.2
15/09:30pm 7.5 6.3 4.5 81 1.3 CALM 0 0 0 0 - - 0.2
15/09:00pm 8.8 6.6 5.4 79 1.5 SSW 6 9 3 5 - - 0.2
15/08:30pm 9.6 7.3 5.6 76 1.8 S 7 13 4 7 - - 0.2
15/08:00pm 10.2 7.9 5.8 74 2.0 S 7 11 4 6 - - 0.2
15/07:30pm 10.3 7.6 5.7 73 2.1 S 9 15 5 8 - - 0.2
15/07:00pm 10.5 8.2 5.9 73 2.1 SSW 7 11 4 6 - - 0.2
15/06:30pm 11.5 8.6 6.4 71 2.4 S 11 19 6 10 - - 0.2
15/06:00pm 12.4 9.2 6.9 69 2.7 S 13 22 7 12 - - 0.2
15/05:30pm 13.0 10.1 6.6 65 3.1 S 11 15 6 8 - - 0.2
15/05:00pm 14.7 11.2 7.0 60 3.8 S 15 28 8 15 - - 0.2
15/04:30pm 14.9 11.6 6.5 57 4.1 S 13 20 7 11 - - 0.2
15/04:00pm 16.8 13.4 6.0 49 5.3 SSE 13 20 7 11 - - 0.2
15/03:30pm 17.3 13.5 5.9 47 5.6 S 15 24 8 13 - - 0.2
15/03:00pm 18.4 15.2 5.3 42 6.4 S 11 17 6 9 - - 0.2
15/02:30pm 16.3 12.8 5.3 48 5.3 S 13 26 7 14 - - 0.2
15/02:00pm 18.0 14.1 5.2 43 6.2 SSE 15 22 8 12 - - 0.2
15/01:30pm 17.3 13.5 3.9 41 6.3 S 13 20 7 11 - - 0.2
15/01:00pm 18.9 15.9 7.7 48 5.7 S 13 24 7 13 - - 0.2
15/12:30pm 17.3 13.8 5.6 46 5.7 S 13 22 7 12 - - 0.2
15/12:00pm 17.3 14.2 5.6 46 5.7 SSW 11 20 6 11 - - 0.2
15/11:30am 17.2 13.2 6.7 50 5.2 SSW 17 26 9 14 - - 0.2
15/11:00am 16.9 12.8 6.4 50 5.2 SSW 17 30 9 16 - - 0.2
15/10:30am 16.9 13.2 7.8 55 4.6 SSW 17 28 9 15 - - 0.0
15/10:00am 15.6 12.0 6.6 55 4.4 SSW 15 26 8 14 - - 0.0
15/09:30am 14.4 10.7 6.3 58 3.9 SSW 15 28 8 15 - - 0.0
15/09:00am 13.4 10.1 6.3 62 3.4 SSW 13 20 7 11 - - 0.0
15/08:30am 12.0 8.1 5.2 63 3.2 SSW 15 24 8 13 - - 0.0
15/08:00am 10.7 7.6 5.7 71 2.3 SW 11 20 6 11 - - 0.0
15/07:30am 9.3 6.0 4.7 73 2.1 SW 11 15 6 8 - - 0.0
15/07:00am 8.1 5.2 4.7 79 1.5 SW 9 15 5 8 - - 0.0
15/06:30am 5.9 3.3 4.1 88 0.8 SW 7 11 4 6 - - 0.0
15/06:00am 5.8 3.3 3.6 86 0.9 SW 6 11 3 6 - - 0.0
15/05:30am 6.5 3.5 4.2 85 1.0 SW 9 13 5 7 - - 0.0
15/05:00am 6.1 3.2 4.7 91 0.6 SW 9 15 5 8 - - 0.0
15/04:30am 5.2 2.8 4.5 95 0.3 SW 6 9 3 5 - - 0.0
15/04:00am 5.0 2.6 4.1 94 0.4 SW 6 9 3 5 - - 0.0
15/03:30am 5.6 3.6 4.6 93 0.4 SSW 4 9 2 5 - - 0.0
15/03:00am 6.2 3.9 5.0 92 0.5 SSW 6 9 3 5 - - 0.0
15/02:30am 6.1 3.8 4.9 92 0.5 SW 6 11 3 6 - - 0.0
15/02:00am 6.0 3.6 5.1 94 0.4 SW 7 11 4 6 - - 0.0
15/01:30am 5.9 3.6 4.7 92 0.5 SW 6 9 3 5 - - 0.0
15/01:00am 6.6 4.3 4.9 89 0.7 SW 6 9 3 5 - - 0.0
15/12:30am 6.7 4.2 4.7 87 0.9 SW 7 9 4 5 - - 0.0
15/12:00am 7.0 4.5 5.0 87 0.9 SW 7 9 4 5 - - 0.0
 
Date/Time
EST
Temp
°C
App
Temp
°C
Dew
Point
°C
Rel
Hum
%
Delta-T
°C
Wind Press
QNH
hPa
Press
MSL
hPa
Rain since
9am
mm
Dir  Spd
km/h
Gust
km/h
Spd
kts
Gust
kts
14/11:30pm 6.4 4.1 5.0 91 0.6 WSW 6 9 3 5 - - 0.0
14/11:00pm 6.6 4.4 5.2 91 0.6 SW 6 11 3 6 - - 0.0
14/10:30pm 6.8 5.7 5.0 88 0.8 CALM 0 6 0 3 - - 0.0
14/10:00pm 7.1 4.8 4.9 86 1.0 SW 6 11 3 6 - - 0.0
14/09:30pm 7.9 5.6 4.8 81 1.4 SW 6 7 3 4 - - 0.0
14/09:00pm 8.7 6.2 4.9 77 1.7 SSW 7 9 4 5 - - 0.0
14/08:30pm 9.7 7.0 5.5 75 1.9 SSW 9 15 5 8 - - 0.0
14/08:00pm 9.8 6.7 5.4 74 2.0 SSW 11 15 6 8 - - 0.0
14/07:30pm 10.1 6.9 5.1 71 2.3 S 11 17 6 9 - - 0.0
14/07:00pm 10.5 7.3 5.1 69 2.5 S 11 19 6 10 - - 0.0
14/06:30pm 11.1 7.9 5.0 66 2.8 S 11 22 6 12 - - 0.0
14/06:00pm 11.7 8.5 4.9 63 3.1 S 11 20 6 11 - - 0.0
14/05:30pm 12.9 8.8 4.6 57 3.8 S 15 24 8 13 - - 0.0
14/05:00pm 14.1 10.0 4.1 51 4.6 S 15 26 8 14 - - 0.0
14/04:30pm 15.0 10.8 5.5 53 4.5 S 17 28 9 15 - - 0.0
14/04:00pm 15.3 10.9 4.7 49 5.0 S 17 30 9 16 - - 0.0
14/03:30pm 15.0 11.4 6.6 57 4.1 S 15 26 8 14 - - 0.0
14/03:00pm 15.3 11.1 5.5 52 4.7 S 17 35 9 19 - - 0.0
14/02:30pm 15.2 10.3 4.9 50 4.9 SSW 20 33 11 18 - - 0.0

Latest Capital City Observations: Canberra | Sydney | Melbourne | Brisbane | Adelaide | Perth | Hobart | Darwin

Other formats

Comma delimited format used in spreadsheet applications
http://www.bom.gov.au/fwo/IDN60901/IDN60901.94757.axf

JavaScript Object Notation format (JSON) in row-major order
http://www.bom.gov.au/fwo/IDN60901/IDN60901.94757.json

Data quality

Most of these data are generated automatically and are frequently updated. Quality checks on data are not normally performed. It is possible for incorrect values to appear. Refer to information at About Latest Weather Observations and please check the disclaimer before using these data.